createdAt,value
2022-12-12T00:00:11.392Z,6.28
2022-12-12T00:02:40.642Z,6.80
2022-12-12T00:05:16.279Z,7.35
2022-12-12T00:07:45.172Z,6.45
2022-12-12T00:10:14.336Z,5.43
2022-12-12T00:12:43.069Z,6.43
2022-12-12T00:15:14.571Z,6.47
2022-12-12T00:17:45.935Z,6.95
2022-12-12T00:20:16.848Z,5.85
2022-12-12T00:22:45.805Z,5.22
2022-12-12T00:25:14.820Z,5.72
2022-12-12T00:27:43.638Z,5.75
2022-12-12T00:30:13.299Z,7.13
2022-12-12T00:32:41.877Z,5.53
2022-12-12T00:35:11.719Z,5.70
2022-12-12T00:37:42.019Z,6.28
2022-12-12T00:40:12.408Z,6.43
2022-12-12T00:42:41.226Z,7.60
2022-12-12T00:45:11.152Z,8.73
2022-12-12T00:47:40.053Z,9.57
2022-12-12T00:50:10.141Z,9.13
2022-12-12T00:52:38.794Z,9.00
2022-12-12T00:55:10.876Z,8.95
2022-12-12T00:58:04.866Z,8.32
2022-12-12T01:00:33.850Z,9.73
2022-12-12T01:03:02.516Z,9.88
2022-12-12T01:05:31.771Z,9.93
2022-12-12T01:08:00.396Z,10.23
2022-12-12T01:10:31.516Z,10.02
2022-12-12T01:13:00.347Z,9.77
2022-12-12T01:15:29.586Z,8.68
2022-12-12T01:17:58.384Z,9.63
2022-12-12T01:20:28.638Z,7.93
2022-12-12T01:22:57.256Z,9.80
2022-12-12T01:25:25.916Z,9.18
2022-12-12T01:27:56.825Z,8.57
2022-12-12T01:30:25.555Z,9.25
2022-12-12T01:32:55.667Z,10.30
2022-12-12T01:35:26.321Z,9.70
2022-12-12T01:37:54.945Z,9.95
2022-12-12T01:40:25.959Z,9.43
2022-12-12T01:42:57.291Z,9.10
2022-12-12T01:46:03.682Z,10.13
2022-12-12T01:48:37.397Z,9.20
2022-12-12T01:51:10.326Z,10.07
2022-12-12T01:53:39.505Z,9.82
2022-12-12T01:56:13.193Z,10.60
2022-12-12T01:58:45.194Z,10.07
2022-12-12T02:01:15.167Z,9.65
2022-12-12T02:03:45.438Z,9.65
2022-12-12T02:06:18.857Z,8.70
2022-12-12T02:08:48.666Z,11.07
2022-12-12T02:11:17.822Z,11.35
2022-12-12T02:13:49.221Z,10.15
2022-12-12T02:16:31.179Z,10.20
2022-12-12T02:19:17.718Z,10.35
2022-12-12T02:21:54.594Z,9.60
2022-12-12T02:25:03.174Z,9.05
2022-12-12T02:28:04.712Z,10.85
2022-12-12T02:30:46.522Z,10.77
2022-12-12T02:33:40.268Z,10.90
2022-12-12T02:36:17.689Z,9.90
2022-12-12T02:38:56.645Z,9.00
2022-12-12T02:41:32.756Z,11.40
2022-12-12T02:44:11.790Z,10.85
2022-12-12T02:46:48.831Z,10.15
2022-12-12T02:49:24.450Z,9.30
2022-12-12T02:51:54.043Z,10.18
2022-12-12T02:54:24.664Z,9.35
2022-12-12T02:56:57.339Z,10.23
2022-12-12T02:59:32.119Z,9.88
2022-12-12T03:02:35.411Z,7.95
2022-12-12T03:05:45.483Z,9.63
2022-12-12T03:08:29.432Z,9.55
2022-12-12T03:11:02.405Z,9.38
2022-12-12T03:13:40.450Z,9.57
2022-12-12T03:16:20.913Z,8.93
2022-12-12T03:18:58.358Z,7.78
2022-12-12T03:21:36.929Z,9.57
2022-12-12T03:24:10.688Z,8.70
2022-12-12T03:29:18.405Z,9.43
2022-12-12T03:31:51.087Z,9.30
2022-12-12T03:34:23.537Z,8.10
2022-12-12T03:36:58.535Z,9.75
2022-12-12T03:39:33.728Z,8.73
2022-12-12T03:42:07.853Z,9.43
2022-12-12T03:44:41.920Z,8.65
2022-12-12T03:47:15.206Z,8.27
2022-12-12T03:49:49.990Z,8.45
2022-12-12T03:52:26.049Z,9.70
2022-12-12T03:55:01.773Z,9.27
2022-12-12T03:57:36.544Z,10.98
2022-12-12T04:00:10.087Z,10.10
2022-12-12T04:02:43.547Z,10.82
2022-12-12T04:05:18.234Z,8.65
2022-12-12T04:07:54.645Z,7.50
2022-12-12T04:10:44.207Z,6.45
2022-12-12T04:13:30.369Z,6.20
2022-12-12T04:16:05.823Z,6.38
2022-12-12T04:24:19.886Z,9.30
2022-12-12T04:26:53.170Z,8.70
2022-12-12T04:29:37.727Z,8.30
2022-12-12T04:32:14.877Z,9.52
2022-12-12T04:34:48.871Z,9.32
2022-12-12T04:37:21.608Z,9.50
2022-12-12T04:39:54.486Z,9.77
2022-12-12T04:42:26.615Z,7.97
2022-12-12T04:45:00.321Z,9.35
2022-12-12T04:47:32.871Z,10.77
2022-12-12T04:50:04.072Z,10.07
2022-12-12T04:52:35.753Z,10.20
2022-12-12T04:55:11.965Z,8.43
2022-12-12T04:57:45.266Z,7.95
2022-12-12T05:00:15.936Z,11.55
2022-12-12T05:02:52.026Z,9.82
2022-12-12T05:05:26.888Z,10.85
2022-12-12T05:08:01.111Z,10.38
2022-12-12T05:10:32.104Z,10.10
2022-12-12T05:13:02.500Z,9.93
2022-12-12T05:15:31.850Z,10.18
2022-12-12T05:18:05.746Z,10.45
2022-12-12T05:20:34.880Z,11.88
2022-12-12T05:23:03.611Z,10.30
2022-12-12T05:25:37.478Z,8.77
2022-12-12T05:30:35.348Z,8.57
2022-12-12T05:33:04.428Z,11.15
2022-12-12T05:35:34.425Z,11.13
2022-12-12T05:38:03.726Z,11.48
2022-12-12T05:40:34.908Z,11.00
2022-12-12T05:43:03.281Z,12.77
2022-12-12T05:45:32.485Z,10.57
2022-12-12T05:48:01.599Z,13.35
2022-12-12T05:50:30.319Z,9.20
2022-12-12T05:52:59.219Z,10.70
2022-12-12T05:55:28.255Z,9.65
2022-12-12T05:57:59.710Z,10.40
2022-12-12T06:00:29.041Z,9.00
2022-12-12T06:02:58.731Z,10.88
2022-12-12T06:05:28.256Z,10.18
2022-12-12T06:07:57.508Z,9.38
2022-12-12T06:10:26.469Z,10.48
2022-12-12T06:12:56.052Z,9.13
2022-12-12T06:15:28.121Z,9.63
2022-12-12T06:17:58.741Z,10.65
2022-12-12T06:20:27.669Z,8.52
2022-12-12T06:22:56.480Z,9.45
2022-12-12T06:25:25.296Z,11.02
2022-12-12T06:27:56.065Z,10.10
2022-12-12T06:30:27.973Z,10.98
2022-12-12T06:32:57.199Z,11.13
2022-12-12T06:35:26.195Z,11.00
2022-12-12T06:37:54.979Z,11.93
2022-12-12T06:40:24.460Z,10.38
2022-12-12T06:42:53.868Z,12.85
2022-12-12T06:45:22.452Z,9.30
2022-12-12T06:47:54.708Z,10.98
2022-12-12T06:50:24.156Z,10.50
2022-12-12T06:52:52.538Z,10.07
2022-12-12T06:55:21.208Z,9.43
2022-12-12T06:57:51.132Z,12.90
2022-12-12T07:00:20.753Z,11.10
2022-12-12T07:02:54.087Z,9.77
2022-12-12T07:05:24.057Z,9.00
2022-12-12T07:07:52.512Z,8.82
2022-12-12T07:10:21.640Z,9.60
2022-12-12T07:12:54.583Z,9.13
2022-12-12T07:15:25.979Z,11.73
2022-12-12T07:17:55.206Z,11.35
2022-12-12T07:20:26.553Z,11.25
2022-12-12T07:23:02.765Z,9.13
2022-12-12T07:25:32.118Z,9.88
2022-12-12T07:28:01.308Z,11.82
2022-12-12T07:30:30.253Z,10.23
2022-12-12T07:32:59.250Z,10.38
2022-12-12T07:35:30.256Z,9.38
2022-12-12T07:37:59.134Z,10.43
2022-12-12T07:40:28.373Z,12.90
2022-12-12T07:42:56.946Z,10.27
2022-12-12T07:45:25.544Z,9.82
2022-12-12T07:47:55.020Z,10.40
2022-12-12T07:50:23.968Z,11.15
2022-12-12T07:52:56.612Z,8.85
2022-12-12T07:55:25.446Z,10.10
2022-12-12T07:57:54.607Z,9.95
2022-12-12T08:00:23.694Z,9.70
2022-12-12T08:02:52.905Z,10.43
2022-12-12T08:05:21.945Z,9.35
2022-12-12T08:07:51.463Z,11.73
2022-12-12T08:10:22.028Z,8.82
2022-12-12T08:12:51.130Z,8.77
2022-12-12T08:15:20.837Z,9.38
2022-12-12T08:17:49.268Z,10.00
2022-12-12T08:20:19.839Z,9.18
2022-12-12T08:22:48.676Z,9.07
2022-12-12T08:25:17.587Z,11.98
2022-12-12T08:27:48.145Z,9.27
2022-12-12T08:30:17.998Z,10.35
2022-12-12T08:32:47.364Z,10.45
2022-12-12T08:35:17.109Z,8.80
2022-12-12T08:37:45.844Z,9.48
2022-12-12T08:40:14.814Z,9.32
2022-12-12T08:42:44.106Z,10.80
2022-12-12T08:45:15.157Z,11.55
2022-12-12T08:47:44.767Z,8.95
2022-12-12T08:50:13.773Z,10.35
2022-12-12T08:52:43.367Z,10.57
2022-12-12T08:55:13.446Z,8.45
2022-12-12T08:57:44.134Z,10.23
2022-12-12T09:00:18.550Z,10.05
2022-12-12T09:02:47.981Z,11.27
2022-12-12T09:05:17.901Z,10.15
2022-12-12T09:07:46.967Z,11.57
2022-12-12T09:10:15.863Z,13.80
2022-12-12T09:12:45.390Z,10.35
2022-12-12T09:15:16.391Z,11.48
2022-12-12T09:17:45.431Z,11.90
2022-12-12T09:20:15.378Z,9.55
2022-12-12T09:22:44.470Z,11.00
2022-12-12T09:25:14.646Z,10.48
2022-12-12T09:27:44.305Z,9.73
2022-12-12T09:30:15.984Z,8.60
2022-12-12T09:32:45.792Z,7.38
2022-12-12T09:35:14.610Z,10.27
2022-12-12T09:37:45.532Z,9.27
2022-12-12T09:40:21.472Z,8.80
2022-12-12T09:42:53.208Z,9.55
2022-12-12T09:45:24.294Z,8.88
2022-12-12T09:47:57.134Z,9.00
2022-12-12T09:50:31.597Z,9.25
2022-12-12T09:53:03.534Z,10.55
2022-12-12T09:55:42.347Z,9.15
2022-12-12T09:58:20.450Z,9.38
2022-12-12T10:00:59.956Z,9.68
2022-12-12T10:03:42.203Z,9.43
2022-12-12T10:06:38.712Z,9.60
2022-12-12T10:09:26.126Z,9.68
2022-12-12T10:11:58.615Z,11.15
2022-12-12T10:19:49.779Z,7.97
2022-12-12T10:22:28.160Z,9.93
2022-12-12T10:25:05.861Z,10.18
2022-12-12T10:27:35.280Z,9.30
2022-12-12T10:30:17.778Z,10.40
2022-12-12T10:33:02.437Z,9.88
2022-12-12T10:35:40.875Z,9.50
2022-12-12T10:38:26.723Z,9.25
2022-12-12T10:41:03.546Z,9.35
2022-12-12T10:43:39.784Z,7.85
2022-12-12T10:46:27.402Z,7.60
2022-12-12T10:48:58.922Z,8.27
2022-12-12T10:51:31.619Z,8.23
2022-12-12T10:54:03.308Z,8.30
2022-12-12T10:56:31.804Z,7.70
2022-12-12T10:59:03.136Z,8.13
2022-12-12T11:02:07.971Z,6.10
2022-12-12T11:04:24.387Z,5.60
2022-12-12T11:06:55.301Z,6.57
2022-12-12T11:09:29.734Z,6.50
2022-12-12T11:12:01.054Z,6.88
2022-12-12T11:14:34.852Z,7.70
2022-12-12T11:17:04.777Z,6.00
2022-12-12T11:19:40.565Z,5.72
2022-12-12T11:22:09.521Z,6.00
2022-12-12T11:24:41.611Z,5.38
2022-12-12T11:27:19.615Z,7.00
2022-12-12T11:29:51.061Z,6.07
2022-12-12T11:32:25.714Z,7.70
2022-12-12T11:34:59.723Z,6.03
2022-12-12T11:37:33.735Z,6.18
2022-12-12T11:42:34.298Z,5.47
2022-12-12T11:45:06.133Z,5.82
2022-12-12T11:47:42.389Z,6.07
2022-12-12T11:50:24.366Z,6.90
2022-12-12T11:52:57.172Z,6.93
2022-12-12T11:55:37.641Z,7.45
2022-12-12T11:58:19.444Z,7.03
2022-12-12T12:01:00.091Z,6.85
2022-12-12T12:03:54.532Z,7.57
2022-12-12T12:09:28.568Z,6.78
2022-12-12T12:12:06.511Z,7.05
2022-12-12T12:15:08.621Z,7.28
2022-12-12T12:18:00.864Z,7.40
2022-12-12T12:20:45.081Z,7.43
2022-12-12T12:25:54.155Z,6.30
2022-12-12T12:28:51.985Z,6.18
2022-12-12T12:31:28.580Z,6.50
2022-12-12T12:34:13.361Z,6.35
2022-12-12T12:36:53.936Z,5.82
2022-12-12T12:39:35.079Z,7.03
2022-12-12T12:42:23.604Z,7.55
2022-12-12T12:44:56.852Z,7.18
2022-12-12T12:47:34.313Z,7.85
2022-12-12T12:50:07.705Z,7.25
2022-12-12T12:52:41.198Z,8.25
2022-12-12T12:55:19.680Z,7.50
2022-12-12T12:57:51.378Z,7.70
2022-12-12T13:00:25.452Z,8.13
2022-12-12T13:03:01.590Z,7.90
2022-12-12T13:05:37.912Z,6.22
2022-12-12T13:08:15.988Z,7.32
2022-12-12T13:10:51.371Z,7.22
2022-12-12T13:13:26.994Z,6.00
2022-12-12T13:16:02.212Z,6.70
2022-12-12T13:18:45.111Z,5.15
2022-12-12T13:21:23.693Z,7.43
2022-12-12T13:24:00.998Z,7.38
2022-12-12T13:26:46.671Z,7.15
2022-12-12T13:29:36.814Z,7.00
2022-12-12T13:32:34.480Z,8.50
2022-12-12T13:35:09.535Z,7.18
2022-12-12T13:37:47.827Z,6.70
2022-12-12T13:40:27.164Z,6.13
2022-12-12T13:43:08.774Z,6.50
2022-12-12T13:45:47.115Z,7.38
2022-12-12T13:48:46.266Z,6.65
2022-12-12T13:51:40.472Z,7.20
2022-12-12T13:54:55.692Z,7.28
2022-12-12T14:00:22.383Z,9.07
2022-12-12T14:03:04.181Z,9.10
2022-12-12T14:05:37.906Z,10.00
2022-12-12T14:08:21.068Z,8.70
2022-12-12T14:11:04.276Z,9.43
2022-12-12T14:13:43.646Z,8.55
2022-12-12T14:16:30.989Z,8.65
2022-12-12T14:19:07.846Z,8.95
2022-12-12T14:21:44.016Z,9.82
2022-12-12T14:24:48.340Z,9.00
2022-12-12T14:27:17.402Z,8.02
2022-12-12T14:29:47.507Z,9.48
2022-12-12T14:32:37.359Z,8.82
2022-12-12T14:35:26.061Z,7.90
2022-12-12T14:38:05.684Z,10.32
2022-12-12T14:40:38.976Z,9.23
2022-12-12T14:43:21.613Z,8.57
2022-12-12T14:45:58.015Z,7.63
2022-12-12T14:48:31.572Z,9.75
2022-12-12T14:51:09.600Z,8.50
2022-12-12T14:53:49.770Z,8.65
2022-12-12T14:56:20.162Z,8.45
2022-12-12T14:58:59.372Z,8.10
2022-12-12T15:01:34.729Z,7.07
2022-12-12T15:04:11.600Z,7.85
2022-12-12T15:06:43.353Z,7.45
2022-12-12T15:09:26.741Z,7.95
2022-12-12T15:11:58.439Z,8.13
2022-12-12T15:14:30.001Z,8.25
2022-12-12T15:17:04.441Z,7.53
2022-12-12T15:19:39.369Z,6.28
2022-12-12T15:22:13.823Z,6.40
2022-12-12T15:24:42.774Z,6.22
2022-12-12T15:27:20.584Z,7.53
2022-12-12T15:29:50.489Z,6.93
2022-12-12T15:32:24.337Z,7.55
2022-12-12T15:35:04.153Z,7.00
2022-12-12T15:37:33.904Z,7.80
2022-12-12T15:40:23.417Z,6.47
2022-12-12T15:42:58.248Z,7.93
2022-12-12T15:45:34.744Z,8.18
2022-12-12T15:48:06.191Z,7.40
2022-12-12T15:50:54.212Z,6.22
2022-12-12T15:53:28.679Z,7.57
2022-12-12T15:56:03.052Z,7.70
2022-12-12T15:58:36.542Z,7.47
2022-12-12T16:01:20.672Z,8.13
2022-12-12T16:04:00.656Z,7.88
2022-12-12T16:06:42.882Z,6.70
2022-12-12T16:09:20.434Z,6.95
2022-12-12T16:11:50.303Z,8.30
2022-12-12T16:14:32.579Z,7.47
2022-12-12T16:17:10.200Z,8.57
2022-12-12T16:19:43.019Z,7.37
2022-12-12T16:22:22.274Z,7.15
2022-12-12T16:24:53.499Z,7.95
2022-12-12T16:27:23.228Z,6.65
2022-12-12T16:29:52.905Z,7.32
2022-12-12T16:32:22.783Z,6.38
2022-12-12T16:34:51.655Z,7.47
2022-12-12T16:37:23.004Z,7.75
2022-12-12T16:39:51.859Z,8.45
2022-12-12T16:42:24.888Z,7.85
2022-12-12T16:44:53.752Z,6.85
2022-12-12T16:47:24.986Z,8.40
2022-12-12T16:49:54.019Z,9.43
2022-12-12T16:52:24.957Z,7.25
2022-12-12T16:54:54.484Z,6.80
2022-12-12T16:57:24.281Z,8.10
2022-12-12T16:59:53.589Z,7.85
2022-12-12T17:02:26.782Z,8.70
2022-12-12T17:04:56.130Z,6.95
2022-12-12T17:07:26.207Z,8.13
2022-12-12T17:09:55.105Z,8.88
2022-12-12T17:12:23.790Z,8.25
2022-12-12T17:14:52.892Z,8.85
2022-12-12T17:17:22.203Z,8.23
2022-12-12T17:19:50.594Z,8.30
2022-12-12T17:22:19.995Z,8.38
2022-12-12T17:24:50.464Z,8.23
2022-12-12T17:27:19.498Z,7.53
2022-12-12T17:29:48.361Z,8.48
2022-12-12T17:32:21.508Z,7.28
2022-12-12T17:34:53.554Z,8.88
2022-12-12T17:37:23.223Z,8.50
2022-12-12T17:39:55.085Z,9.02
2022-12-12T17:42:29.403Z,9.55
2022-12-12T17:44:59.115Z,10.23
2022-12-12T17:47:27.753Z,9.05
2022-12-12T17:49:58.755Z,10.07
2022-12-12T17:52:28.001Z,9.50
2022-12-12T17:55:54.088Z,7.82
2022-12-12T17:57:50.735Z,7.28
2022-12-12T18:00:20.216Z,7.85
2022-12-12T18:02:50.133Z,8.40
2022-12-12T18:05:20.672Z,10.35
2022-12-12T18:07:50.115Z,9.00
2022-12-12T18:10:21.104Z,7.47
2022-12-12T18:12:51.961Z,8.93
2022-12-12T18:15:21.132Z,8.07
2022-12-12T18:17:53.141Z,8.10
2022-12-12T18:20:26.682Z,7.97
2022-12-12T18:22:58.706Z,8.00
2022-12-12T18:25:29.956Z,8.93
2022-12-12T18:27:59.143Z,8.95
2022-12-12T18:30:28.681Z,8.25
2022-12-12T18:33:02.900Z,8.63
2022-12-12T18:35:33.104Z,8.18
2022-12-12T18:38:02.615Z,9.77
2022-12-12T18:40:35.997Z,9.60
2022-12-12T18:43:07.512Z,9.50
2022-12-12T18:45:38.464Z,9.55
2022-12-12T18:48:08.311Z,9.60
2022-12-12T18:50:37.216Z,10.70
2022-12-12T18:53:06.055Z,9.63
2022-12-12T18:55:36.489Z,10.88
2022-12-12T18:58:07.456Z,11.95
2022-12-12T19:00:40.636Z,10.45
2022-12-12T19:03:10.792Z,10.32
2022-12-12T19:05:42.144Z,9.55
2022-12-12T19:08:12.411Z,10.57
2022-12-12T19:10:43.130Z,11.18
2022-12-12T19:13:14.054Z,10.90
2022-12-12T19:15:43.982Z,11.50
2022-12-12T19:18:12.778Z,12.15
2022-12-12T19:20:42.088Z,12.10
2022-12-12T19:23:10.885Z,10.75
2022-12-12T19:25:42.930Z,9.52
2022-12-12T19:28:13.770Z,9.57
2022-12-12T19:30:44.189Z,8.65
2022-12-12T19:33:14.835Z,9.00
2022-12-12T19:35:43.515Z,8.95
2022-12-12T19:38:12.330Z,8.23
2022-12-12T19:40:41.311Z,8.55
2022-12-12T19:43:10.160Z,9.32
2022-12-12T19:45:40.942Z,8.70
2022-12-12T19:48:11.687Z,8.50
2022-12-12T19:50:40.840Z,8.27
2022-12-12T19:53:09.674Z,7.60
2022-12-12T19:55:40.200Z,8.32
2022-12-12T19:58:09.096Z,9.00
2022-12-12T20:00:38.196Z,7.95
2022-12-12T20:03:08.536Z,8.95
2022-12-12T20:05:37.164Z,8.15
2022-12-12T20:08:06.547Z,8.70
2022-12-12T20:10:37.462Z,6.97
2022-12-12T20:13:08.286Z,8.27
2022-12-12T20:15:39.092Z,9.07
2022-12-12T20:18:16.118Z,6.65
2022-12-12T20:20:44.820Z,7.88
2022-12-12T20:23:16.059Z,9.10
2022-12-12T20:25:44.943Z,9.70
2022-12-12T20:28:13.855Z,8.23
2022-12-12T20:30:42.512Z,8.43
2022-12-12T20:33:12.900Z,8.20
2022-12-12T20:35:41.364Z,9.07
2022-12-12T20:38:10.398Z,8.68
2022-12-12T20:40:40.983Z,10.25
2022-12-12T20:43:10.307Z,10.35
2022-12-12T20:45:39.798Z,7.97
2022-12-12T20:48:08.845Z,7.22
2022-12-12T20:50:39.435Z,7.68
2022-12-12T20:53:08.533Z,9.07
2022-12-12T20:55:37.555Z,9.35
2022-12-12T20:58:06.269Z,9.70
2022-12-12T21:00:36.139Z,8.23
2022-12-12T21:03:04.753Z,8.98
2022-12-12T21:05:33.210Z,7.10
2022-12-12T21:08:03.535Z,9.05
2022-12-12T21:10:32.953Z,9.88
2022-12-12T21:13:03.190Z,8.07
2022-12-12T21:15:33.592Z,8.77
2022-12-12T21:18:02.711Z,8.63
2022-12-12T21:20:32.104Z,9.98
2022-12-12T21:23:00.907Z,9.23
2022-12-12T21:25:31.466Z,8.77
2022-12-12T21:28:00.667Z,8.00
2022-12-12T21:30:32.017Z,7.90
2022-12-12T21:33:01.430Z,10.60
2022-12-12T21:35:30.079Z,9.38
2022-12-12T21:38:00.021Z,9.35
2022-12-12T21:40:28.966Z,8.35
2022-12-12T21:42:59.833Z,9.15
2022-12-12T21:45:30.494Z,8.40
2022-12-12T21:48:00.011Z,10.18
2022-12-12T21:50:30.876Z,8.40
2022-12-12T21:53:16.944Z,9.10
2022-12-12T21:55:46.524Z,10.18
2022-12-12T21:58:17.407Z,9.65
2022-12-12T22:00:47.246Z,8.88
2022-12-12T22:03:21.855Z,8.73
2022-12-12T22:05:51.414Z,9.20
2022-12-12T22:08:20.122Z,8.63
2022-12-12T22:10:54.355Z,9.40
2022-12-12T22:13:25.411Z,9.45
2022-12-12T22:16:04.782Z,10.73
2022-12-12T22:18:33.559Z,9.80
2022-12-12T22:21:06.182Z,10.07
2022-12-12T22:23:37.445Z,9.30
2022-12-12T22:26:15.451Z,8.45
2022-12-12T22:28:46.480Z,7.65
2022-12-12T22:31:16.306Z,7.93
2022-12-12T22:33:45.959Z,7.35
2022-12-12T22:36:17.164Z,7.20
2022-12-12T22:38:46.497Z,8.32
2022-12-12T22:41:15.031Z,7.65
2022-12-12T22:43:46.184Z,8.02
2022-12-12T22:46:14.990Z,7.78
2022-12-12T22:48:43.884Z,7.85
2022-12-12T22:51:17.696Z,8.75
2022-12-12T22:53:46.671Z,7.93
2022-12-12T22:56:15.498Z,8.00
2022-12-12T22:58:45.719Z,9.48
2022-12-12T23:01:16.657Z,9.55
2022-12-12T23:03:46.396Z,7.90
2022-12-12T23:06:17.880Z,8.48
2022-12-12T23:08:51.838Z,8.75
2022-12-12T23:11:22.010Z,9.63
2022-12-12T23:13:55.951Z,9.80
2022-12-12T23:16:27.827Z,9.57
2022-12-12T23:18:56.374Z,8.70
2022-12-12T23:21:26.832Z,9.23
2022-12-12T23:23:56.648Z,8.60
2022-12-12T23:26:27.544Z,7.68
2022-12-12T23:28:58.129Z,7.30
2022-12-12T23:31:28.605Z,8.90
2022-12-12T23:33:59.622Z,8.80
2022-12-12T23:36:30.964Z,9.52
2022-12-12T23:39:01.590Z,8.48
2022-12-12T23:41:30.842Z,8.68
2022-12-12T23:44:01.328Z,7.72
2022-12-12T23:46:31.623Z,8.45
2022-12-12T23:49:03.684Z,10.45
2022-12-12T23:51:35.386Z,7.22
2022-12-12T23:54:06.215Z,8.80
2022-12-12T23:56:35.573Z,8.25
2022-12-12T23:59:06.384Z,10.20
